MVC101 SCCF-SPZO
Flight info
| Callsign | MVC101 |
|---|---|
| Flight time | N/A |
| Altitude | 28000 |
| Route | VUREL3M VUREL UM789 AKNUV UL797 OPLES UM789 SIRAM UL300 OPKUL UM415 LITOT |
| Aircraft | RJ1H/M-SDFGIRWY/LB1 |
Departure
| Time | 2026-04-26 17:13 |
|---|---|
| Airport | El Loa Airport (SCCF) |
Arrival
| Time | N/A |
|---|---|
| Airport | Alejandro Velasco Astete International Airport (SPZO) |
| Time | Latitude | Longitude | Altitude | Speed | Heading |
|---|---|---|---|---|---|
| 2026-04-26 17:04 | -22.49756 | -68.90776 | 7492 ft | 1 kts | 184° |
| 2026-04-26 17:04 | -22.49762 | -68.90777 | 7481 ft | 0 kts | 180° |
| 2026-04-26 17:05 | -22.49781 | -68.90772 | 7481 ft | 4 kts | 156° |
| 2026-04-26 17:05 | -22.49797 | -68.90755 | 7488 ft | 4 kts | 123° |
| 2026-04-26 17:05 | -22.49808 | -68.90709 | 7494 ft | 9 kts | 96° |
| 2026-04-26 17:05 | -22.49814 | -68.90637 | 7502 ft | 9 kts | 95° |
| 2026-04-26 17:06 | -22.49821 | -68.90563 | 7508 ft | 12 kts | 96° |
| 2026-04-26 17:06 | -22.49829 | -68.90475 | 7518 ft | 12 kts | 96° |
| 2026-04-26 17:06 | -22.49838 | -68.90381 | 7526 ft | 13 kts | 96° |
| 2026-04-26 17:06 | -22.49845 | -68.90272 | 7534 ft | 16 kts | 94° |
| 2026-04-26 17:07 | -22.49853 | -68.90143 | 7544 ft | 18 kts | 94° |
| 2026-04-26 17:07 | -22.49862 | -68.89997 | 7557 ft | 20 kts | 94° |
| 2026-04-26 17:07 | -22.49873 | -68.89835 | 7570 ft | 23 kts | 94° |
| 2026-04-26 17:07 | -22.49886 | -68.89646 | 7579 ft | 27 kts | 94° |
| 2026-04-26 17:08 | -22.49900 | -68.89431 | 7592 ft | 30 kts | 94° |
| 2026-04-26 17:08 | -22.49915 | -68.89221 | 7605 ft | 25 kts | 94° |
| 2026-04-26 17:08 | -22.49926 | -68.89065 | 7616 ft | 17 kts | 94° |
| 2026-04-26 17:08 | -22.49932 | -68.88965 | 7623 ft | 10 kts | 94° |
| 2026-04-26 17:09 | -22.49938 | -68.88890 | 7630 ft | 10 kts | 96° |
| 2026-04-26 17:09 | -22.49955 | -68.88852 | 7635 ft | 8 kts | 140° |
| 2026-04-26 17:09 | -22.50000 | -68.88841 | 7634 ft | 0 kts | 180° |
| 2026-04-26 17:11 | -22.50002 | -68.88841 | 7634 ft | 2 kts | 180° |
| 2026-04-26 17:11 | -22.50076 | -68.88846 | 7634 ft | 17 kts | 189° |
| 2026-04-26 17:11 | -22.50115 | -68.88910 | 7631 ft | 0 kts | 274° |
| 2026-04-26 17:12 | -22.50076 | -68.89437 | 7593 ft | 79 kts | 274° |
| 2026-04-26 17:12 | -22.50040 | -68.90209 | 7684 ft | 114 kts | 271° |
| 2026-04-26 17:13 | -22.50077 | -68.92087 | 8364 ft | 115 kts | 264° |
| 2026-04-26 17:13 | -22.50127 | -68.92924 | 8640 ft | 133 kts | 276° |
| 2026-04-26 17:13 | -22.49870 | -68.95460 | 8805 ft | 200 kts | 275° |
| 2026-04-26 17:14 | -22.49713 | -68.97064 | 9247 ft | 226 kts | 276° |
| 2026-04-26 17:14 | -22.49394 | -69.00659 | 10873 ft | 251 kts | 277° |
| 2026-04-26 17:14 | -22.48798 | -69.02474 | 11539 ft | 267 kts | 307° |
| 2026-04-26 17:15 | -22.45408 | -69.04218 | 13108 ft | 286 kts | 344° |
| 2026-04-26 17:15 | -22.43466 | -69.04780 | 13923 ft | 291 kts | 342° |
| 2026-04-26 17:15 | -22.41512 | -69.05419 | 14620 ft | 296 kts | 340° |
| 2026-04-26 17:16 | -22.39546 | -69.06156 | 15329 ft | 301 kts | 337° |
| 2026-04-26 17:16 | -22.37585 | -69.06988 | 16002 ft | 306 kts | 335° |
| 2026-04-26 17:16 | -22.35612 | -69.07905 | 16663 ft | 311 kts | 333° |
| 2026-04-26 17:16 | -22.33629 | -69.08874 | 17320 ft | 315 kts | 333° |
| 2026-04-26 17:17 | -22.31626 | -69.09881 | 17937 ft | 319 kts | 332° |
| 2026-04-26 17:17 | -22.29601 | -69.10902 | 18517 ft | 323 kts | 332° |
| 2026-04-26 17:17 | -22.27564 | -69.11925 | 19095 ft | 323 kts | 332° |
| 2026-04-26 17:17 | -22.25520 | -69.12953 | 19655 ft | 324 kts | 332° |
| 2026-04-26 17:18 | -22.23481 | -69.13983 | 20185 ft | 325 kts | 332° |
| 2026-04-26 17:18 | -22.21436 | -69.15032 | 20685 ft | 326 kts | 332° |
| 2026-04-26 17:18 | -22.19401 | -69.16067 | 21172 ft | 327 kts | 332° |
| 2026-04-26 17:18 | -22.17331 | -69.17100 | 21632 ft | 329 kts | 332° |
| 2026-04-26 17:19 | -22.13162 | -69.19193 | 22511 ft | 331 kts | 331° |
| 2026-04-26 17:19 | -22.11078 | -69.20251 | 22932 ft | 332 kts | 331° |
| 2026-04-26 17:19 | -22.08980 | -69.21312 | 23324 ft | 334 kts | 332° |
| 2026-04-26 17:20 | -22.06865 | -69.22365 | 23681 ft | 335 kts | 332° |
| 2026-04-26 17:20 | -22.06178 | -69.22708 | 23781 ft | 335 kts | 331° |
| 2026-04-26 17:20 | -22.02623 | -69.24496 | 24289 ft | 338 kts | 331° |
| 2026-04-26 17:20 | -22.00484 | -69.25561 | 24586 ft | 339 kts | 332° |
| 2026-04-26 17:21 | -21.98333 | -69.26626 | 24885 ft | 341 kts | 331° |
| 2026-04-26 17:21 | -21.96178 | -69.27706 | 25176 ft | 342 kts | 331° |
| 2026-04-26 17:21 | -21.94046 | -69.28777 | 25464 ft | 343 kts | 331° |
| 2026-04-26 17:21 | -21.91878 | -69.29865 | 25743 ft | 345 kts | 331° |
| 2026-04-26 17:22 | -21.89704 | -69.30948 | 26012 ft | 347 kts | 331° |
| 2026-04-26 17:22 | -21.87464 | -69.32065 | 26016 ft | 357 kts | 332° |
| 2026-04-26 17:22 | -21.85168 | -69.33191 | 26036 ft | 367 kts | 332° |
| 2026-04-26 17:22 | -21.82815 | -69.34342 | 26058 ft | 376 kts | 332° |
| 2026-04-26 17:23 | -21.80412 | -69.35536 | 26072 ft | 385 kts | 332° |
| 2026-04-26 17:23 | -21.77962 | -69.36636 | 26093 ft | 394 kts | 336° |
| 2026-04-26 17:23 | -21.75353 | -69.37638 | 26160 ft | 401 kts | 338° |
| 2026-04-26 17:23 | -21.72693 | -69.38587 | 26381 ft | 403 kts | 339° |
| 2026-04-26 17:24 | -21.70020 | -69.39521 | 26623 ft | 404 kts | 339° |
| 2026-04-26 17:24 | -21.67344 | -69.40472 | 26855 ft | 406 kts | 338° |
| 2026-04-26 17:24 | -21.64675 | -69.41427 | 27076 ft | 407 kts | 338° |
| 2026-04-26 17:24 | -21.61970 | -69.42396 | 27312 ft | 408 kts | 338° |
| 2026-04-26 17:25 | -21.59281 | -69.43388 | 27522 ft | 409 kts | 338° |
| 2026-04-26 17:25 | -21.56586 | -69.44384 | 27747 ft | 410 kts | 338° |
| 2026-04-26 17:25 | -21.53877 | -69.45365 | 27951 ft | 412 kts | 338° |
| 2026-04-26 17:25 | -21.51149 | -69.46356 | 28171 ft | 413 kts | 338° |
| 2026-04-26 17:26 | -21.48461 | -69.47351 | 28366 ft | 414 kts | 338° |
| 2026-04-26 17:26 | -21.45723 | -69.48345 | 28563 ft | 416 kts | 338° |
| 2026-04-26 17:26 | -21.42977 | -69.49336 | 28764 ft | 417 kts | 338° |
| 2026-04-26 17:26 | -21.41120 | -69.50019 | 28899 ft | 418 kts | 338° |
| 2026-04-26 17:27 | -21.38395 | -69.51022 | 29081 ft | 419 kts | 338° |
| 2026-04-26 17:27 | -21.35632 | -69.52023 | 29265 ft | 420 kts | 338° |
| 2026-04-26 17:27 | -21.32859 | -69.53023 | 29443 ft | 421 kts | 338° |
| 2026-04-26 17:27 | -21.30082 | -69.54049 | 29627 ft | 422 kts | 338° |
| 2026-04-26 17:28 | -21.27296 | -69.55071 | 29797 ft | 424 kts | 338° |
| 2026-04-26 17:28 | -21.24502 | -69.56082 | 29985 ft | 425 kts | 338° |
| 2026-04-26 17:28 | -21.21694 | -69.57095 | 30139 ft | 425 kts | 338° |
| 2026-04-26 17:28 | -21.18884 | -69.58107 | 30297 ft | 426 kts | 338° |
| 2026-04-26 17:29 | -21.16078 | -69.59129 | 30432 ft | 427 kts | 338° |
| 2026-04-26 17:29 | -21.14212 | -69.59819 | 30526 ft | 427 kts | 338° |
| 2026-04-26 17:29 | -21.10441 | -69.61191 | 30715 ft | 428 kts | 338° |
| 2026-04-26 17:29 | -21.07695 | -69.62185 | 30847 ft | 428 kts | 338° |
| 2026-04-26 17:30 | -21.04872 | -69.63206 | 30970 ft | 429 kts | 338° |
| 2026-04-26 17:30 | -21.02049 | -69.64227 | 31028 ft | 426 kts | 338° |
| 2026-04-26 17:30 | -20.96470 | -69.66243 | 31034 ft | 423 kts | 338° |
| 2026-04-26 17:31 | -20.95669 | -69.66532 | 31036 ft | 423 kts | 338° |